createdAt,value
2022-08-18T00:04:24.276Z,19.30
2022-08-18T00:09:15.905Z,20.19
2022-08-18T00:14:22.990Z,18.79
2022-08-18T00:19:46.093Z,21.59
2022-08-18T00:24:34.092Z,16.62
2022-08-18T00:29:40.614Z,20.53
2022-08-18T00:34:46.796Z,17.81
2022-08-18T00:39:53.295Z,18.79
2022-08-18T00:44:59.264Z,16.40
2022-08-18T00:50:05.603Z,17.01
2022-08-18T00:55:11.743Z,26.24
2022-08-18T01:00:18.105Z,21.46
2022-08-18T01:05:24.282Z,23.03
2022-08-18T01:10:30.612Z,25.79
2022-08-18T01:15:36.746Z,23.81
2022-08-18T01:20:43.502Z,21.24
2022-08-18T01:25:49.722Z,22.08
2022-08-18T01:30:55.950Z,24.77
2022-08-18T01:36:02.131Z,23.26
2022-08-18T01:41:27.239Z,26.01
2022-08-18T01:46:14.105Z,22.39
2022-08-18T01:51:19.878Z,21.53
2022-08-18T01:56:25.954Z,24.60
2022-08-18T02:01:36.535Z,19.17
2022-08-18T02:06:37.422Z,25.76
2022-08-18T02:11:43.314Z,23.01
2022-08-18T02:16:49.548Z,18.74
2022-08-18T02:21:56.185Z,25.67
2022-08-18T02:27:02.489Z,23.93
2022-08-18T02:32:08.731Z,25.03
2022-08-18T02:37:15.748Z,20.86
2022-08-18T02:42:20.772Z,25.95
2022-08-18T02:47:31.480Z,24.84
2022-08-18T02:52:32.894Z,20.75
2022-08-18T02:57:39.033Z,23.22
2022-08-18T03:02:45.330Z,19.88
2022-08-18T03:07:51.608Z,25.83
2022-08-18T03:12:57.722Z,26.79
2022-08-18T03:18:03.894Z,20.39
2022-08-18T03:23:10.278Z,29.57
2022-08-18T03:28:16.378Z,35.65
2022-08-18T03:33:22.708Z,36.52
2022-08-18T03:38:28.934Z,37.33
2022-08-18T03:43:50.836Z,36.29
2022-08-18T03:48:40.793Z,40.63
2022-08-18T03:54:27.224Z,43.10
2022-08-18T03:59:33.458Z,38.32
2022-08-18T04:04:42.822Z,40.81
2022-08-18T04:09:45.461Z,34.66
2022-08-18T04:14:51.895Z,39.11
2022-08-18T04:19:58.081Z,30.12
2022-08-18T04:25:04.377Z,31.29
2022-08-18T04:30:10.481Z,30.35
2022-08-18T04:35:16.702Z,32.25
2022-08-18T04:40:25.263Z,29.09
2022-08-18T04:45:28.837Z,28.50
2022-08-18T04:50:34.987Z,26.81
2022-08-18T04:55:41.327Z,26.72
2022-08-18T05:00:47.545Z,24.90
2022-08-18T05:05:53.610Z,25.89
2022-08-18T05:11:03.843Z,25.00
2022-08-18T05:16:11.650Z,27.62
2022-08-18T05:21:11.593Z,23.51
2022-08-18T05:26:17.784Z,25.08
2022-08-18T05:31:23.898Z,27.81
2022-08-18T05:36:30.297Z,25.91
2022-08-18T05:41:36.509Z,29.77
2022-08-18T05:46:42.854Z,28.02
2022-08-18T05:51:48.999Z,28.96
2022-08-18T05:56:55.405Z,36.13
2022-08-18T06:02:01.542Z,35.89
2022-08-18T06:07:08.290Z,36.37
2022-08-18T06:12:14.391Z,51.99
2022-08-18T06:17:20.601Z,46.13
2022-08-18T06:22:26.968Z,41.55
2022-08-18T06:27:32.481Z,48.61
2022-08-18T06:32:38.614Z,45.68
2022-08-18T06:37:45.184Z,49.50
2022-08-18T06:42:51.205Z,48.72
2022-08-18T06:47:57.397Z,41.10
2022-08-18T06:53:03.521Z,43.33
2022-08-18T06:58:09.813Z,38.66
2022-08-18T07:03:16.035Z,31.40
2022-08-18T07:08:22.397Z,29.46
2022-08-18T07:13:28.509Z,29.63
2022-08-18T07:18:34.750Z,26.78
2022-08-18T07:23:40.879Z,28.82
2022-08-18T07:29:57.127Z,32.26
2022-08-18T07:35:03.333Z,26.64
2022-08-18T07:40:09.999Z,24.05
2022-08-18T07:45:16.113Z,25.54
2022-08-18T07:50:36.212Z,25.80
2022-08-18T07:55:27.722Z,28.52
2022-08-18T08:00:58.337Z,23.93
2022-08-18T08:05:39.704Z,20.67
2022-08-18T08:11:27.268Z,20.65
2022-08-18T08:16:36.192Z,21.56
2022-08-18T08:21:42.387Z,14.75
2022-08-18T08:26:48.537Z,16.94
2022-08-18T08:31:54.829Z,13.91
2022-08-18T08:37:00.931Z,17.13
2022-08-18T08:42:29.638Z,15.62
2022-08-18T08:47:12.582Z,13.01
2022-08-18T08:52:19.052Z,14.27
2022-08-18T08:57:23.965Z,15.24
2022-08-18T09:02:47.226Z,13.73
2022-08-18T09:07:39.025Z,11.39
2022-08-18T09:12:45.523Z,13.16
2022-08-18T09:17:51.561Z,12.85
2022-08-18T09:22:57.744Z,7.90
2022-08-18T09:28:11.592Z,9.93
2022-08-18T09:33:18.519Z,5.59
2022-08-18T09:43:22.129Z,10.18
2022-08-18T09:48:28.600Z,9.91
2022-08-18T09:53:33.584Z,9.05
2022-08-18T09:58:39.871Z,8.43
2022-08-18T10:03:45.720Z,7.57
2022-08-18T10:08:51.820Z,7.10
2022-08-18T10:13:58.067Z,7.59
2022-08-18T10:19:04.177Z,7.77
2022-08-18T10:24:35.016Z,8.66
2022-08-18T10:29:15.996Z,6.26
2022-08-18T10:34:22.267Z,7.57
2022-08-18T10:39:27.939Z,6.07
2022-08-18T10:44:34.525Z,8.20
2022-08-18T10:49:46.897Z,11.01
2022-08-18T10:54:51.984Z,10.42
2022-08-18T10:59:54.623Z,11.13
2022-08-18T11:04:58.924Z,8.67
2022-08-18T11:10:27.960Z,10.30
2022-08-18T11:15:23.423Z,12.44
2022-08-18T11:20:15.150Z,10.05
2022-08-18T11:25:20.930Z,10.03
2022-08-18T11:30:30.568Z,10.02
2022-08-18T11:35:33.086Z,12.11
2022-08-18T11:41:10.432Z,10.56
2022-08-18T11:45:44.928Z,12.77
2022-08-18T11:50:54.594Z,10.12
2022-08-18T11:55:57.758Z,12.43
2022-08-18T12:01:03.910Z,10.60
2022-08-18T12:06:10.122Z,12.61
2022-08-18T12:11:26.513Z,10.88
2022-08-18T12:16:21.674Z,10.03
2022-08-18T12:21:27.746Z,10.08
2022-08-18T12:26:38.820Z,13.82
2022-08-18T12:36:44.952Z,9.25
2022-08-18T12:41:50.656Z,9.60
2022-08-18T12:46:56.593Z,7.61
2022-08-18T12:52:03.510Z,7.18
2022-08-18T12:57:08.529Z,9.76
2022-08-18T13:02:14.165Z,8.13
2022-08-18T13:07:20.425Z,10.34
2022-08-18T13:12:26.177Z,7.27
2022-08-18T13:18:15.631Z,9.21
2022-08-18T13:23:24.978Z,10.08
2022-08-18T13:28:27.553Z,7.35
2022-08-18T13:33:34.875Z,7.96
2022-08-18T13:38:39.034Z,10.43
2022-08-18T13:43:45.611Z,8.84
2022-08-18T13:48:51.394Z,7.08
2022-08-18T13:54:18.327Z,7.76
2022-08-18T13:59:03.413Z,8.86
2022-08-18T14:04:12.458Z,7.85
2022-08-18T14:09:19.816Z,8.89
2022-08-18T14:14:20.571Z,10.73
2022-08-18T14:19:26.804Z,9.10
2022-08-18T14:24:32.781Z,10.68
2022-08-18T14:29:45.557Z,10.77
2022-08-18T14:34:50.928Z,9.11
2022-08-18T14:39:50.461Z,12.01
2022-08-18T14:45:03.505Z,14.41
2022-08-18T14:50:01.519Z,13.06
2022-08-18T14:55:07.637Z,10.38
2022-08-18T15:00:14.016Z,10.90
2022-08-18T15:05:24.171Z,10.83
2022-08-18T15:10:27.946Z,8.56
2022-08-18T15:15:50.774Z,11.40
2022-08-18T15:20:36.868Z,7.70
2022-08-18T15:25:42.985Z,8.67
2022-08-18T15:30:51.173Z,7.66
2022-08-18T15:35:54.821Z,8.18
2022-08-18T15:41:05.940Z,6.41
2022-08-18T15:46:06.820Z,5.24
2022-08-18T15:51:12.981Z,6.81
2022-08-18T15:56:20.908Z,5.41
2022-08-18T16:01:32.002Z,5.28
2022-08-18T16:06:32.207Z,6.10
2022-08-18T16:11:36.124Z,5.54
2022-08-18T16:16:42.281Z,5.73
2022-08-18T16:21:48.637Z,4.89
2022-08-18T16:26:54.744Z,4.58
2022-08-18T16:32:00.905Z,4.73
2022-08-18T16:37:06.686Z,3.07
2022-08-18T16:42:12.844Z,4.31
2022-08-18T16:47:18.980Z,3.44
2022-08-18T16:52:25.576Z,2.05
2022-08-18T16:57:32.500Z,4.10
2022-08-18T17:02:37.549Z,3.32
2022-08-18T17:07:43.725Z,4.42
2022-08-18T17:12:50.135Z,3.43
2022-08-18T17:17:56.234Z,3.50
2022-08-18T17:23:02.660Z,3.84
2022-08-18T17:28:10.139Z,4.68
2022-08-18T17:33:14.914Z,3.94
2022-08-18T17:38:21.121Z,4.76
2022-08-18T17:43:27.296Z,3.75
2022-08-18T17:48:33.432Z,4.37
2022-08-18T17:53:39.655Z,3.12
2022-08-18T17:58:45.740Z,3.33
2022-08-18T18:16:21.434Z,4.97
2022-08-18T18:22:00.266Z,3.54
2022-08-18T18:26:33.386Z,4.15
2022-08-18T18:31:39.705Z,3.85
2022-08-18T18:36:46.103Z,4.56
2022-08-18T18:41:52.281Z,4.09
2022-08-18T18:47:01.543Z,4.47
2022-08-18T18:52:04.405Z,3.63
2022-08-18T18:57:12.625Z,4.57
2022-08-18T19:02:33.792Z,4.25
2022-08-18T19:07:22.091Z,4.43
2022-08-18T19:12:28.218Z,4.16
2022-08-18T19:17:34.586Z,4.39
2022-08-18T19:22:40.255Z,3.22
2022-08-18T19:27:46.454Z,4.92
2022-08-18T19:32:52.757Z,3.98
2022-08-18T19:37:58.325Z,4.09
2022-08-18T19:43:04.000Z,3.67
2022-08-18T19:48:10.222Z,4.96
2022-08-18T19:53:16.346Z,4.45
2022-08-18T19:58:22.675Z,4.31
2022-08-18T20:03:28.774Z,4.42
2022-08-18T20:08:35.004Z,5.46
2022-08-18T20:13:43.264Z,6.25
2022-08-18T20:18:46.890Z,5.45
2022-08-18T20:23:53.046Z,6.18
2022-08-18T20:28:59.270Z,5.00
2022-08-18T20:34:05.378Z,5.80
2022-08-18T20:39:11.903Z,7.27
2022-08-18T20:44:21.442Z,5.37
2022-08-18T20:49:23.821Z,6.93
2022-08-18T20:54:29.449Z,5.57
2022-08-18T20:59:35.560Z,6.77
2022-08-18T21:04:43.080Z,6.77
2022-08-18T21:09:47.490Z,8.82
2022-08-18T21:14:53.969Z,5.94
2022-08-18T21:20:00.594Z,6.64
2022-08-18T21:25:07.333Z,7.33
2022-08-18T21:30:13.749Z,6.34
2022-08-18T21:35:19.895Z,6.41
2022-08-18T21:40:29.694Z,6.89
2022-08-18T21:45:31.682Z,6.58
2022-08-18T21:50:37.937Z,6.68
2022-08-18T21:55:44.042Z,6.69
2022-08-18T22:00:50.644Z,8.24
2022-08-18T22:05:59.241Z,7.87
2022-08-18T22:11:02.955Z,6.91
2022-08-18T22:16:08.114Z,6.82
2022-08-18T22:21:14.383Z,5.60
2022-08-18T22:26:20.585Z,6.75
2022-08-18T22:31:26.765Z,6.70
2022-08-18T22:36:32.975Z,6.74
2022-08-18T22:41:39.270Z,6.66
2022-08-18T22:46:45.565Z,7.49
2022-08-18T22:51:51.815Z,8.64
2022-08-18T22:56:58.048Z,6.58
2022-08-18T23:02:04.118Z,8.02
2022-08-18T23:07:10.350Z,7.72
2022-08-18T23:12:16.832Z,7.06
2022-08-18T23:17:23.039Z,6.61
2022-08-18T23:22:29.327Z,6.64
2022-08-18T23:27:35.765Z,6.37
2022-08-18T23:32:42.105Z,6.45
2022-08-18T23:37:48.326Z,8.03
2022-08-18T23:42:54.653Z,7.21
2022-08-18T23:48:00.902Z,7.20
2022-08-18T23:53:07.173Z,8.66
2022-08-18T23:58:13.325Z,9.14
